Time;durP1;ratioP1;P1;durP2;ratioP2;P2;SDS_P1;SDS_P2;PMS_P1;PMS_P2;Temp;Humidity;BMP_temperature;BMP_pressure;BME280_temperature;BME280_humidity;BME280_pressure;Samples;Min_cycle;Max_cycle;Signal;HPM_P1;HPM_P2
2023/09/02 00:00:00;;;;;;;24.38;21.52;;;17.60;99.90;;;;;;2495421;23;20002;-73
2023/09/02 00:01:00;;;;;;;24.15;21.50;;;17.60;99.90;;;;;;2495830;23;20006;-73
2023/09/02 00:02:01;;;;;;;24.15;21.35;;;17.60;99.90;;;;;;2495069;23;20005;-73
2023/09/02 00:03:01;;;;;;;24.27;21.77;;;17.60;99.90;;;;;;2495162;23;20019;-73
2023/09/02 00:04:02;;;;;;;23.77;20.23;;;17.60;99.90;;;;;;2495455;23;20548;-73
2023/09/02 00:05:03;;;;;;;23.08;20.67;;;17.60;99.90;;;;;;2495541;23;20420;-73
2023/09/02 00:06:04;;;;;;;23.27;20.88;;;17.60;99.90;;;;;;2495851;23;20582;-73
2023/09/02 00:07:04;;;;;;;20.92;18.83;;;17.60;99.90;;;;;;2494215;23;20078;-73
2023/09/02 00:08:05;;;;;;;22.77;20.58;;;17.60;99.90;;;;;;2494736;23;20058;-73
2023/09/02 00:09:05;;;;;;;22.00;19.52;;;17.70;99.90;;;;;;2482364;23;20449;-73
2023/09/02 00:10:08;;;;;;;23.25;19.42;;;17.70;99.90;;;;;;2495660;23;20003;-73
2023/09/02 00:11:09;;;;;;;23.02;20.63;;;17.70;99.90;;;;;;2495200;23;20011;-73
2023/09/02 00:12:09;;;;;;;22.77;20.42;;;17.70;99.90;;;;;;2493490;23;20007;-73
2023/09/02 00:13:10;;;;;;;22.50;19.20;;;17.70;99.90;;;;;;2494881;23;20454;-73
2023/09/02 00:14:11;;;;;;;23.77;21.02;;;17.70;99.90;;;;;;2494718;23;20015;-73
2023/09/02 00:15:11;;;;;;;24.05;20.33;;;17.70;99.90;;;;;;2495102;23;20038;-73
2023/09/02 00:16:13;;;;;;;21.63;19.42;;;17.70;99.90;;;;;;2494545;23;20007;-73
2023/09/02 00:17:14;;;;;;;20.75;18.75;;;17.70;99.90;;;;;;2494207;23;20473;-73
2023/09/02 00:18:14;;;;;;;21.90;19.23;;;17.70;99.90;;;;;;2483439;23;20358;-73
2023/09/02 00:19:15;;;;;;;23.10;20.63;;;17.80;99.90;;;;;;2494994;23;20011;-73
2023/09/02 00:20:15;;;;;;;22.40;20.25;;;17.80;99.90;;;;;;2495348;23;20030;-73
2023/09/02 00:21:16;;;;;;;20.60;18.48;;;17.80;99.90;;;;;;2495387;23;20420;-73
2023/09/02 00:22:16;;;;;;;19.80;17.90;;;17.80;99.90;;;;;;2494143;23;20297;-73
2023/09/02 00:23:17;;;;;;;21.25;19.25;;;17.80;99.90;;;;;;2494964;23;20025;-73
2023/09/02 00:24:17;;;;;;;21.48;19.17;;;17.80;99.90;;;;;;2494526;23;20516;-73
2023/09/02 00:25:18;;;;;;;20.67;18.58;;;17.80;99.90;;;;;;2494937;23;20007;-73
2023/09/02 00:26:18;;;;;;;20.88;18.77;;;17.80;99.90;;;;;;2495722;23;20447;-73
2023/09/02 00:27:19;;;;;;;24.50;19.33;;;17.80;99.90;;;;;;2494703;23;20058;-73
2023/09/02 00:28:19;;;;;;;21.75;19.45;;;17.90;99.90;;;;;;2495635;23;20007;-73
2023/09/02 00:29:20;;;;;;;21.15;19.05;;;17.90;99.90;;;;;;2494569;23;20329;-73
2023/09/02 00:30:21;;;;;;;20.98;18.40;;;17.90;99.90;;;;;;2494358;23;20038;-73
2023/09/02 00:31:22;;;;;;;19.63;17.63;;;17.90;99.90;;;;;;2494161;23;20007;-73
2023/09/02 00:32:23;;;;;;;19.67;17.85;;;17.90;99.90;;;;;;2494491;23;20036;-73
2023/09/02 00:33:24;;;;;;;20.90;18.70;;;17.90;99.90;;;;;;2495196;23;20003;-73
2023/09/02 00:34:24;;;;;;;21.23;18.60;;;17.90;99.90;;;;;;2495654;23;20070;-73
2023/09/02 00:35:25;;;;;;;19.95;17.80;;;17.90;99.90;;;;;;2493232;23;20618;-73
2023/09/02 00:36:27;;;;;;;19.67;17.67;;;17.90;99.90;;;;;;2494714;23;20017;-73
2023/09/02 00:37:28;;;;;;;18.75;17.00;;;17.90;99.90;;;;;;2482760;23;20302;-73
2023/09/02 00:38:29;;;;;;;20.88;18.77;;;17.90;99.90;;;;;;2482739;23;20072;-73
2023/09/02 00:39:29;;;;;;;19.52;17.60;;;17.90;99.90;;;;;;2494858;23;20460;-73
2023/09/02 00:40:31;;;;;;;19.92;17.83;;;17.90;99.90;;;;;;2495705;23;20003;-73
2023/09/02 00:41:37;;;;;;;21.10;18.63;;;17.90;99.90;;;;;;2494761;23;20007;-73
2023/09/02 00:42:39;;;;;;;21.50;18.00;;;17.90;99.90;;;;;;2494695;23;20007;-73
2023/09/02 00:43:40;;;;;;;20.20;18.10;;;17.90;99.90;;;;;;2495772;23;20007;-73
2023/09/02 00:44:41;;;;;;;19.65;17.55;;;17.90;99.90;;;;;;2495073;23;20018;-73
2023/09/02 00:45:42;;;;;;;18.25;16.33;;;17.90;99.90;;;;;;2495667;23;20007;-73
2023/09/02 00:46:43;;;;;;;19.67;17.23;;;17.90;99.90;;;;;;2494851;23;20427;-73
2023/09/02 00:47:45;;;;;;;19.05;17.15;;;17.90;99.90;;;;;;2495530;23;20008;-73
2023/09/02 00:48:45;;;;;;;18.90;16.92;;;17.90;99.90;;;;;;2495655;23;20052;-73
2023/09/02 00:49:46;;;;;;;18.00;16.27;;;17.90;99.90;;;;;;2494897;23;20007;-73
2023/09/02 00:50:47;;;;;;;18.88;17.05;;;17.90;99.90;;;;;;2494925;23;20843;-73
2023/09/02 00:51:47;;;;;;;17.52;15.80;;;17.90;99.90;;;;;;2494444;23;20440;-73
2023/09/02 00:52:48;;;;;;;17.85;16.23;;;17.90;99.90;;;;;;2493603;23;20040;-73
2023/09/02 00:53:48;;;;;;;18.83;16.92;;;17.90;99.90;;;;;;2495773;23;20011;-73
2023/09/02 00:54:49;;;;;;;18.63;15.82;;;17.90;99.90;;;;;;2495098;23;20087;-73
2023/09/02 00:55:52;;;;;;;19.17;16.95;;;17.90;99.90;;;;;;2495409;23;20011;-73
2023/09/02 00:56:53;;;;;;;19.90;17.80;;;17.90;99.90;;;;;;2495463;23;20043;-73
2023/09/02 00:57:56;;;;;;;19.63;17.58;;;18.00;99.90;;;;;;2494936;23;20014;-73
2023/09/02 00:59:00;;;;;;;20.75;16.77;;;18.00;99.90;;;;;;2495312;23;20002;-73
2023/09/02 01:00:03;;;;;;;19.70;17.70;;;18.00;99.90;;;;;;2495286;23;20003;-73
2023/09/02 01:01:05;;;;;;;18.10;15.77;;;18.00;99.90;;;;;;2495492;23;20005;-73
2023/09/02 01:02:08;;;;;;;18.60;16.70;;;18.00;99.90;;;;;;2493810;23;20030;-73
2023/09/02 01:03:10;;;;;;;18.58;16.67;;;18.00;99.90;;;;;;2494218;23;20078;-73
2023/09/02 01:04:10;;;;;;;18.25;16.25;;;18.00;99.90;;;;;;2495481;23;20062;-73
2023/09/02 01:05:11;;;;;;;17.48;15.70;;;18.00;99.90;;;;;;2493956;23;20011;-73
2023/09/02 01:06:13;;;;;;;18.83;16.85;;;18.00;99.90;;;;;;2494723;23;20013;-73
2023/09/02 01:07:15;;;;;;;18.27;16.38;;;18.00;99.90;;;;;;2494687;23;20002;-73
2023/09/02 01:08:19;;;;;;;17.48;15.63;;;18.00;99.90;;;;;;2494749;23;20630;-73
2023/09/02 01:09:19;;;;;;;18.15;16.00;;;18.00;99.90;;;;;;2495645;23;20011;-73
2023/09/02 01:10:20;;;;;;;18.80;16.25;;;18.00;99.90;;;;;;2494959;23;20081;-73
2023/09/02 01:11:21;;;;;;;19.05;17.15;;;18.00;99.90;;;;;;2495555;23;20015;-73
2023/09/02 01:12:22;;;;;;;18.48;16.50;;;18.00;99.90;;;;;;2493749;23;20030;-73
2023/09/02 01:13:23;;;;;;;17.70;16.10;;;18.00;99.90;;;;;;2495489;23;20007;-73
2023/09/02 01:14:23;;;;;;;18.65;16.67;;;18.00;99.90;;;;;;2495369;23;20682;-73
2023/09/02 01:15:24;;;;;;;19.08;16.30;;;18.00;99.90;;;;;;2495110;23;20133;-73
2023/09/02 01:16:25;;;;;;;18.52;16.83;;;18.00;99.90;;;;;;2495343;23;20003;-73
2023/09/02 01:17:25;;;;;;;18.90;16.90;;;18.00;99.90;;;;;;2495281;23;20328;-73
2023/09/02 01:18:27;;;;;;;18.15;16.13;;;18.00;99.90;;;;;;2493731;23;20007;-73
2023/09/02 01:19:29;;;;;;;17.75;16.05;;;18.00;99.90;;;;;;2495021;23;20010;-73
2023/09/02 01:20:58;;;;;;;19.33;16.95;;;18.00;99.90;;;;;;2495154;23;20007;-73
2023/09/02 01:22:14;;;;;;;18.90;16.83;;;18.00;99.90;;;;;;2495071;23;19999;-73
2023/09/02 01:23:33;;;;;;;19.45;16.58;;;18.00;99.90;;;;;;2494433;23;20267;-73
2023/09/02 01:25:02;;;;;;;17.33;15.52;;;18.00;99.90;;;;;;2495544;23;20100;-73
2023/09/02 01:26:44;;;;;;;17.15;15.35;;;17.90;99.90;;;;;;2494930;23;20136;-73
2023/09/02 01:27:52;;;;;;;16.95;15.23;;;17.90;99.90;;;;;;2447863;24;20666;-73
2023/09/02 01:28:58;;;;;;;17.70;15.98;;;17.90;99.90;;;;;;2475646;23;20003;-73
2023/09/02 01:30:05;;;;;;;17.58;15.68;;;17.90;99.90;;;;;;2484139;23;20603;-73
2023/09/02 01:31:07;;;;;;;17.40;15.60;;;17.90;99.90;;;;;;2495071;23;20003;-73
2023/09/02 01:32:12;;;;;;;16.67;15.07;;;18.00;99.90;;;;;;2494473;23;20035;-73
2023/09/02 01:33:13;;;;;;;17.83;15.07;;;18.00;99.90;;;;;;2494446;23;20011;-73
2023/09/02 01:34:16;;;;;;;17.60;15.93;;;18.00;99.90;;;;;;2494466;23;20007;-73
2023/09/02 01:35:21;;;;;;;22.23;15.25;;;18.00;99.90;;;;;;2495133;23;20007;-73
2023/09/02 01:36:23;;;;;;;16.98;14.70;;;18.00;99.90;;;;;;2495721;23;20018;-73
2023/09/02 01:37:25;;;;;;;18.83;15.20;;;18.00;99.90;;;;;;2495180;23;20019;-73
2023/09/02 01:38:28;;;;;;;18.65;16.80;;;18.00;99.90;;;;;;2494468;23;20029;-73
2023/09/02 01:39:31;;;;;;;16.55;14.82;;;18.00;99.90;;;;;;2494392;23;20007;-73
2023/09/02 01:40:33;;;;;;;18.75;13.95;;;18.10;99.90;;;;;;2494918;23;20439;-73
2023/09/02 01:41:34;;;;;;;17.67;15.10;;;18.10;99.90;;;;;;2494899;23;20456;-73
2023/09/02 01:42:35;;;;;;;16.00;14.35;;;18.10;99.90;;;;;;2493635;23;20004;-73
2023/09/02 01:43:38;;;;;;;15.68;14.02;;;18.10;99.90;;;;;;2495326;23;20004;-73
2023/09/02 01:44:40;;;;;;;18.05;15.57;;;18.10;99.90;;;;;;2495237;23;20440;-73
2023/09/02 01:45:41;;;;;;;16.95;15.18;;;18.10;99.90;;;;;;2493517;23;20066;-73
2023/09/02 01:46:42;;;;;;;17.83;15.63;;;18.10;99.90;;;;;;2494388;23;20058;-73
2023/09/02 01:47:43;;;;;;;16.17;14.45;;;18.10;99.90;;;;;;2494155;23;20008;-73
2023/09/02 01:48:44;;;;;;;15.63;14.18;;;18.10;99.90;;;;;;2494628;23;20126;-73
2023/09/02 01:49:46;;;;;;;16.10;14.52;;;18.10;99.90;;;;;;2482811;23;20012;-73
2023/09/02 01:50:48;;;;;;;15.40;13.90;;;18.10;99.90;;;;;;2495057;23;20000;-73
2023/09/02 01:54:05;;;;;;;15.90;14.20;;;18.10;99.90;;;;;;2495587;23;20007;-73
2023/09/02 01:55:06;;;;;;;17.33;14.07;;;18.10;99.90;;;;;;2491939;23;20053;-73
2023/09/02 01:56:07;;;;;;;14.85;13.35;;;18.10;99.90;;;;;;2494284;23;20003;-73
2023/09/02 01:57:08;;;;;;;15.57;14.05;;;18.10;99.90;;;;;;2495008;23;20003;-73
2023/09/02 01:58:10;;;;;;;15.93;14.32;;;18.10;99.90;;;;;;2495502;23;20039;-73
2023/09/02 01:59:10;;;;;;;16.02;14.43;;;18.10;99.90;;;;;;2494509;23;20000;-73
2023/09/02 02:00:12;;;;;;;16.38;14.70;;;18.10;99.90;;;;;;2493440;23;20444;-73
2023/09/02 02:01:12;;;;;;;16.13;14.52;;;18.10;99.90;;;;;;2493828;23;20000;-73
2023/09/02 02:02:16;;;;;;;15.43;13.70;;;18.10;99.90;;;;;;2494971;23;19999;-73
2023/09/02 02:03:44;;;;;;;18.15;15.80;;;18.10;99.90;;;;;;2495182;23;20340;-73
2023/09/02 02:04:50;;;;;;;21.70;15.55;;;18.10;99.90;;;;;;2493854;23;20004;-73
2023/09/02 02:05:53;;;;;;;16.35;13.80;;;18.10;99.90;;;;;;2493922;23;20004;-73
2023/09/02 02:06:59;;;;;;;17.88;15.15;;;18.10;99.90;;;;;;2494567;23;20079;-73
2023/09/02 02:08:09;;;;;;;18.73;15.70;;;18.10;99.90;;;;;;2495678;23;20003;-73
2023/09/02 02:09:12;;;;;;;19.20;17.30;;;18.10;99.90;;;;;;2494814;23;20038;-73
2023/09/02 02:10:16;;;;;;;19.30;16.10;;;18.00;99.90;;;;;;2495302;23;20014;-73
2023/09/02 02:11:19;;;;;;;18.88;16.13;;;18.00;99.90;;;;;;2493657;23;20007;-73
2023/09/02 02:12:21;;;;;;;20.27;17.48;;;18.00;99.90;;;;;;2494421;23;20011;-73
2023/09/02 02:13:21;;;;;;;19.00;15.95;;;18.00;99.90;;;;;;2495279;23;20086;-73
2023/09/02 02:14:22;;;;;;;19.48;16.83;;;18.00;99.90;;;;;;2494828;23;20083;-73
2023/09/02 02:15:23;;;;;;;19.80;15.27;;;18.00;99.90;;;;;;2494293;23;20003;-73
2023/09/02 02:16:23;;;;;;;21.02;17.17;;;18.00;99.90;;;;;;2495679;23;20008;-73
2023/09/02 02:17:25;;;;;;;16.92;15.13;;;18.10;99.90;;;;;;2494693;23;20080;-73
2023/09/02 02:18:25;;;;;;;17.67;15.75;;;18.10;99.90;;;;;;2495090;23;20015;-73
2023/09/02 02:19:26;;;;;;;16.73;14.98;;;18.10;99.90;;;;;;2495319;23;20038;-73
2023/09/02 02:20:35;;;;;;;18.23;16.30;;;18.10;99.90;;;;;;2491810;23;20008;-73
2023/09/02 02:21:36;;;;;;;18.08;16.08;;;18.10;99.90;;;;;;2495099;23;20018;-73
2023/09/02 02:22:36;;;;;;;18.58;16.55;;;18.10;99.90;;;;;;2495042;23;20439;-73
2023/09/02 02:23:37;;;;;;;19.85;16.38;;;18.10;99.90;;;;;;2495845;23;20014;-73
2023/09/02 02:24:38;;;;;;;18.48;16.42;;;18.10;99.90;;;;;;2495704;23;20006;-73
2023/09/02 02:25:38;;;;;;;20.15;16.27;;;18.10;99.90;;;;;;2494767;23;20012;-73
2023/09/02 02:26:39;;;;;;;16.85;15.07;;;18.10;99.90;;;;;;2494387;23;20011;-73
2023/09/02 02:27:39;;;;;;;19.23;16.90;;;18.10;99.90;;;;;;2495537;23;20082;-73
2023/09/02 02:28:40;;;;;;;17.67;15.93;;;18.10;99.90;;;;;;2495255;23;20011;-73
2023/09/02 02:29:40;;;;;;;18.13;15.95;;;18.10;99.90;;;;;;2496380;23;20004;-73
2023/09/02 02:30:41;;;;;;;20.92;16.40;;;18.10;99.90;;;;;;2495824;23;20010;-73
2023/09/02 02:31:41;;;;;;;18.63;15.25;;;18.10;99.90;;;;;;2495699;23;19999;-73
2023/09/02 02:32:42;;;;;;;18.40;15.45;;;18.10;99.90;;;;;;2495277;23;20021;-73
2023/09/02 02:33:43;;;;;;;18.23;15.98;;;18.10;99.90;;;;;;2494502;23;20047;-73
2023/09/02 02:34:44;;;;;;;16.48;14.35;;;18.10;99.90;;;;;;2495264;23;20007;-73
2023/09/02 02:35:44;;;;;;;18.35;15.93;;;18.10;99.90;;;;;;2495837;23;20010;-74
2023/09/02 02:36:45;;;;;;;25.75;17.08;;;18.10;99.90;;;;;;2495861;23;20048;-73
2023/09/02 02:37:45;;;;;;;18.17;16.17;;;18.10;99.90;;;;;;2495355;23;20460;-73
2023/09/02 02:38:46;;;;;;;17.00;15.02;;;18.10;99.90;;;;;;2495150;23;20003;-73
2023/09/02 02:39:46;;;;;;;17.50;15.55;;;18.10;99.90;;;;;;2495600;23;20547;-73
2023/09/02 02:40:47;;;;;;;20.15;15.30;;;18.10;99.90;;;;;;2495966;23;20009;-73
2023/09/02 02:41:47;;;;;;;19.60;16.15;;;18.10;99.90;;;;;;2495286;23;20349;-73
2023/09/02 02:42:48;;;;;;;19.08;16.05;;;18.10;99.90;;;;;;2494718;23;20000;-73
2023/09/02 02:43:49;;;;;;;18.23;16.08;;;18.10;99.90;;;;;;2496284;23;20007;-73
2023/09/02 02:44:49;;;;;;;17.35;15.38;;;18.10;99.90;;;;;;2494594;23;20493;-73
2023/09/02 02:45:50;;;;;;;17.15;15.38;;;18.10;99.90;;;;;;2494610;23;20333;-73
2023/09/02 02:46:50;;;;;;;18.65;16.35;;;18.10;99.90;;;;;;2496222;23;20014;-73
2023/09/02 02:47:51;;;;;;;20.05;17.05;;;18.10;99.90;;;;;;2495444;23;20094;-73
2023/09/02 02:48:52;;;;;;;19.60;16.88;;;18.10;99.90;;;;;;2495891;23;20073;-73
2023/09/02 02:49:52;;;;;;;20.17;16.55;;;18.10;99.90;;;;;;2495841;23;20329;-73
2023/09/02 02:50:53;;;;;;;19.23;17.17;;;18.10;99.90;;;;;;2494454;23;20014;-73
2023/09/02 02:51:56;;;;;;;18.40;15.45;;;18.00;99.90;;;;;;2495619;23;20006;-73
2023/09/02 02:52:56;;;;;;;23.50;16.02;;;18.00;99.90;;;;;;2494724;23;19999;-73
2023/09/02 02:53:57;;;;;;;18.02;15.02;;;18.00;99.90;;;;;;2496102;23;20011;-73
2023/09/02 02:54:57;;;;;;;18.90;15.43;;;18.00;99.90;;;;;;2494650;23;20078;-73
2023/09/02 02:56:00;;;;;;;16.20;14.50;;;18.00;99.90;;;;;;2495816;23;20086;-73
2023/09/02 02:57:01;;;;;;;18.35;14.27;;;18.10;99.90;;;;;;2495342;23;20138;-73
2023/09/02 02:58:02;;;;;;;16.95;15.15;;;18.10;99.90;;;;;;2495999;23;20011;-73
2023/09/02 02:59:02;;;;;;;19.45;15.13;;;18.10;99.90;;;;;;2495439;23;20003;-73
2023/09/02 03:00:04;;;;;;;17.80;15.45;;;18.10;99.90;;;;;;2494390;23;20003;-73
2023/09/02 03:01:07;;;;;;;16.83;14.52;;;18.10;99.90;;;;;;2495189;23;20473;-73
2023/09/02 03:02:08;;;;;;;19.08;15.43;;;18.10;99.90;;;;;;2495397;23;20010;-73
2023/09/02 03:03:09;;;;;;;16.58;14.70;;;18.10;99.90;;;;;;2495876;23;20011;-73
2023/09/02 03:04:10;;;;;;;18.38;14.75;;;18.10;99.90;;;;;;2496103;23;20003;-73
2023/09/02 03:05:10;;;;;;;16.05;14.38;;;18.10;99.90;;;;;;2495006;23;20022;-73
2023/09/02 03:06:17;;;;;;;17.13;15.18;;;18.10;99.90;;;;;;2495717;23;19996;-73
2023/09/02 03:07:18;;;;;;;19.20;14.70;;;18.10;99.90;;;;;;2494679;23;20010;-73
2023/09/02 03:08:18;;;;;;;18.67;14.82;;;18.10;99.90;;;;;;2494855;23;20086;-73
2023/09/02 03:09:19;;;;;;;20.48;15.05;;;18.20;99.90;;;;;;2483469;23;20043;-74
2023/09/02 03:10:19;;;;;;;18.65;15.73;;;18.20;99.90;;;;;;2483226;23;20008;-73
2023/09/02 03:11:20;;;;;;;18.27;14.73;;;18.20;99.90;;;;;;2495460;23;20022;-73
2023/09/02 03:12:20;;;;;;;16.02;13.75;;;18.10;99.90;;;;;;2495104;23;20007;-73
2023/09/02 03:13:21;;;;;;;15.10;13.18;;;18.10;99.90;;;;;;2495687;23;20411;-73
2023/09/02 03:14:23;;;;;;;16.10;14.35;;;18.20;99.90;;;;;;2495927;23;20011;-73
2023/09/02 03:15:24;;;;;;;17.23;13.55;;;18.20;99.90;;;;;;2496027;23;20007;-73
2023/09/02 03:16:24;;;;;;;16.02;14.38;;;18.20;99.90;;;;;;2494824;23;20627;-73
2023/09/02 03:17:25;;;;;;;15.15;13.30;;;18.10;99.90;;;;;;2495344;23;20011;-73
2023/09/02 03:18:25;;;;;;;16.85;13.20;;;18.20;99.90;;;;;;2483167;23;20008;-73
2023/09/02 03:19:26;;;;;;;15.32;12.90;;;18.20;99.90;;;;;;2482345;23;20457;-73
2023/09/02 03:20:27;;;;;;;17.10;12.55;;;18.20;99.90;;;;;;2495705;23;20064;-73
2023/09/02 03:21:27;;;;;;;16.30;12.70;;;18.20;99.90;;;;;;2495625;23;20035;-73
2023/09/02 03:22:29;;;;;;;15.13;13.52;;;18.20;99.90;;;;;;2494834;23;20425;-73
2023/09/02 03:23:29;;;;;;;14.65;12.95;;;18.20;99.90;;;;;;2495647;23;20067;-74
2023/09/02 03:24:30;;;;;;;15.43;12.77;;;18.20;99.90;;;;;;2495599;23;20758;-73
2023/09/02 03:25:31;;;;;;;14.85;12.52;;;18.20;99.90;;;;;;2495099;23;20500;-73
2023/09/02 03:26:32;;;;;;;13.75;11.88;;;18.30;99.90;;;;;;2495415;23;20007;-73
2023/09/02 03:27:35;;;;;;;13.73;12.23;;;18.20;99.90;;;;;;2495865;23;20035;-74
2023/09/02 03:28:36;;;;;;;14.10;12.55;;;18.30;99.90;;;;;;2493901;23;20306;-73
2023/09/02 03:29:37;;;;;;;14.68;12.27;;;18.20;99.90;;;;;;2496130;23;20014;-73
2023/09/02 03:30:37;;;;;;;15.90;12.65;;;18.30;99.90;;;;;;2493411;23;20079;-73
2023/09/02 03:31:38;;;;;;;14.38;12.45;;;18.30;99.90;;;;;;2494785;23;20003;-73
2023/09/02 03:32:38;;;;;;;14.35;12.73;;;18.30;99.90;;;;;;2495028;23;20337;-73
2023/09/02 03:33:39;;;;;;;13.77;12.38;;;18.30;99.90;;;;;;2493958;23;20043;-73
2023/09/02 03:34:39;;;;;;;12.50;11.10;;;18.30;99.90;;;;;;2494353;23;20392;-74
2023/09/02 03:35:40;;;;;;;13.85;12.20;;;18.30;99.90;;;;;;2495643;23;20453;-73
2023/09/02 03:36:40;;;;;;;12.70;11.50;;;18.30;99.90;;;;;;2495341;23;20036;-73
2023/09/02 03:37:43;;;;;;;13.18;11.73;;;18.30;99.90;;;;;;2495533;23;20083;-73
2023/09/02 03:38:43;;;;;;;13.93;12.43;;;18.30;99.90;;;;;;2494256;23;20007;-73
2023/09/02 03:39:44;;;;;;;15.43;12.00;;;18.30;99.90;;;;;;2494711;23;20004;-73
2023/09/02 03:40:44;;;;;;;15.02;13.32;;;18.30;99.90;;;;;;2493937;23;20132;-73
2023/09/02 03:41:45;;;;;;;14.25;12.20;;;18.30;99.90;;;;;;2495057;23;20029;-73
2023/09/02 03:42:46;;;;;;;12.93;11.32;;;18.30;99.90;;;;;;2493782;23;20014;-73
2023/09/02 03:43:46;;;;;;;14.23;12.07;;;18.30;99.90;;;;;;2496183;23;20007;-73
2023/09/02 03:44:48;;;;;;;13.63;12.07;;;18.30;99.90;;;;;;2495797;23;20074;-73
2023/09/02 03:45:49;;;;;;;15.73;11.65;;;18.40;99.90;;;;;;2495562;23;20034;-73
2023/09/02 03:46:50;;;;;;;13.10;11.73;;;18.30;99.90;;;;;;2495795;23;20015;-73
2023/09/02 03:47:51;;;;;;;15.95;11.43;;;18.30;99.90;;;;;;2495239;23;20403;-73
2023/09/02 03:48:52;;;;;;;16.23;12.25;;;18.30;99.90;;;;;;2495504;23;20007;-73
2023/09/02 03:49:53;;;;;;;12.63;11.27;;;18.40;99.90;;;;;;2495938;23;20018;-73
2023/09/02 03:51:16;;;;;;;12.57;11.30;;;18.30;99.90;;;;;;2495371;23;20003;-73
2023/09/02 03:52:16;;;;;;;12.30;11.00;;;18.30;99.90;;;;;;2494769;23;20003;-74
2023/09/02 03:53:17;;;;;;;18.35;11.80;;;18.30;99.90;;;;;;2494595;23;20683;-73
2023/09/02 03:54:17;;;;;;;12.68;11.30;;;18.30;99.90;;;;;;2494592;23;20066;-73
2023/09/02 03:55:18;;;;;;;12.63;11.43;;;18.30;99.90;;;;;;2494527;23;20036;-73
2023/09/02 03:56:18;;;;;;;12.57;11.27;;;18.30;99.90;;;;;;2495077;23;20325;-73
2023/09/02 03:57:19;;;;;;;13.75;11.10;;;18.30;99.90;;;;;;2495549;23;20019;-73
2023/09/02 03:58:20;;;;;;;13.80;11.57;;;18.40;99.90;;;;;;2495884;23;20007;-73
2023/09/02 03:59:20;;;;;;;13.63;11.50;;;18.30;99.90;;;;;;2482013;23;20278;-73
2023/09/02 04:00:23;;;;;;;12.15;10.85;;;18.30;99.90;;;;;;2482313;23;20003;-73
2023/09/02 04:01:23;;;;;;;12.18;10.88;;;18.30;99.90;;;;;;2493911;23;20015;-73
2023/09/02 04:02:24;;;;;;;12.63;11.30;;;18.30;99.90;;;;;;2494298;23;20429;-73
2023/09/02 04:03:26;;;;;;;12.85;11.05;;;18.30;99.90;;;;;;2495778;23;20075;-73
2023/09/02 04:04:27;;;;;;;11.32;10.23;;;18.30;99.90;;;;;;2494321;23;20337;-73
2023/09/02 04:05:27;;;;;;;11.43;10.23;;;18.30;99.90;;;;;;2494663;23;20031;-73
2023/09/02 04:06:28;;;;;;;11.20;10.10;;;18.30;99.90;;;;;;2496007;23;20007;-74
2023/09/02 04:07:29;;;;;;;16.15;11.10;;;18.30;99.90;;;;;;2495367;23;19999;-74
2023/09/02 04:08:34;;;;;;;12.48;11.18;;;18.30;99.90;;;;;;2495709;23;20078;-73
2023/09/02 04:09:34;;;;;;;13.68;9.93;;;18.30;99.90;;;;;;2495461;23;20089;-74
2023/09/02 04:10:35;;;;;;;12.43;10.50;;;18.30;99.90;;;;;;2495621;23;20011;-73
2023/09/02 04:11:35;;;;;;;12.52;10.85;;;18.30;99.90;;;;;;2495108;23;20011;-74
2023/09/02 04:12:36;;;;;;;11.85;9.75;;;18.40;99.90;;;;;;2493654;23;20007;-73
2023/09/02 04:13:36;;;;;;;11.75;10.45;;;18.30;99.90;;;;;;2494842;23;20349;-74
2023/09/02 04:14:37;;;;;;;11.80;10.45;;;18.30;99.90;;;;;;2495143;23;20011;-73
2023/09/02 04:15:37;;;;;;;14.13;10.40;;;18.30;99.90;;;;;;2495548;23;20483;-73
2023/09/02 04:16:38;;;;;;;12.30;10.23;;;18.30;99.90;;;;;;2495353;23;20074;-73
2023/09/02 04:17:39;;;;;;;13.02;10.73;;;18.30;99.90;;;;;;2495727;23;20021;-73
2023/09/02 04:18:39;;;;;;;11.52;9.73;;;18.30;99.90;;;;;;2495219;23;20018;-73
2023/09/02 04:19:40;;;;;;;11.13;10.02;;;18.30;99.90;;;;;;2495637;23;20003;-73
2023/09/02 04:20:41;;;;;;;11.73;10.52;;;18.30;99.90;;;;;;2494582;23;20709;-73
2023/09/02 04:21:41;;;;;;;12.43;10.10;;;18.30;99.90;;;;;;2495024;23;20059;-73
2023/09/02 04:22:42;;;;;;;10.95;9.85;;;18.30;99.90;;;;;;2494620;23;20007;-73
2023/09/02 04:23:42;;;;;;;11.55;10.18;;;18.30;99.90;;;;;;2481761;23;20031;-73
2023/09/02 04:24:43;;;;;;;10.95;8.70;;;18.30;99.90;;;;;;2482346;23;20015;-74
2023/09/02 04:25:49;;;;;;;11.52;9.05;;;18.30;99.90;;;;;;2495612;23;20003;-73
2023/09/02 04:26:51;;;;;;;10.98;9.35;;;18.30;99.90;;;;;;2494599;23;20008;-73
2023/09/02 04:27:52;;;;;;;10.55;9.55;;;18.30;99.90;;;;;;2495081;23;20456;-73
2023/09/02 04:28:55;;;;;;;10.32;9.30;;;18.20;99.90;;;;;;2495799;23;20415;-73
2023/09/02 04:29:56;;;;;;;11.55;9.68;;;18.20;99.90;;;;;;2482737;23;20015;-73
2023/09/02 04:30:57;;;;;;;14.40;10.27;;;18.30;99.90;;;;;;2483005;23;20004;-73
2023/09/02 04:31:57;;;;;;;10.82;9.60;;;18.30;99.90;;;;;;2495405;23;20381;-73
2023/09/02 04:32:58;;;;;;;11.70;9.48;;;18.20;99.90;;;;;;2494545;23;20004;-73
2023/09/02 04:33:58;;;;;;;10.15;9.25;;;18.30;99.90;;;;;;2495655;23;20012;-73
2023/09/02 04:34:59;;;;;;;13.80;9.05;;;18.30;99.90;;;;;;2482124;23;20051;-73
2023/09/02 04:36:00;;;;;;;10.52;9.38;;;18.30;99.90;;;;;;2482355;23;20007;-73
2023/09/02 04:37:01;;;;;;;10.15;8.90;;;18.20;99.90;;;;;;2495469;23;20007;-73
2023/09/02 04:38:02;;;;;;;11.52;9.75;;;18.30;99.90;;;;;;2495499;23;20003;-73
2023/09/02 04:39:04;;;;;;;10.38;9.25;;;18.30;99.90;;;;;;2494945;23;20038;-73
2023/09/02 04:40:06;;;;;;;9.40;8.50;;;18.30;99.90;;;;;;2495809;23;20015;-73
2023/09/02 04:41:07;;;;;;;9.88;8.73;;;18.30;99.90;;;;;;2494227;23;20053;-73
2023/09/02 04:42:07;;;;;;;9.90;8.68;;;18.30;99.90;;;;;;2493044;23;20004;-73
2023/09/02 04:43:09;;;;;;;13.75;9.18;;;18.30;99.90;;;;;;2482411;23;20078;-73
2023/09/02 04:44:10;;;;;;;10.52;8.23;;;18.30;99.90;;;;;;2482558;23;20011;-73
2023/09/02 04:45:11;;;;;;;9.57;7.82;;;18.30;99.90;;;;;;2483117;23;20015;-73
2023/09/02 04:46:11;;;;;;;9.52;8.70;;;18.20;99.90;;;;;;2494644;23;20011;-73
2023/09/02 04:47:12;;;;;;;8.98;8.13;;;18.20;99.90;;;;;;2495074;23;19995;-73
2023/09/02 04:48:13;;;;;;;12.20;8.90;;;18.30;99.90;;;;;;2494491;23;20003;-73
2023/09/02 04:49:14;;;;;;;8.40;7.60;;;18.20;99.90;;;;;;2495329;23;20039;-74
2023/09/02 04:50:15;;;;;;;8.65;7.85;;;18.30;99.90;;;;;;2495511;23;20015;-73
2023/09/02 04:51:16;;;;;;;9.13;7.72;;;18.20;99.90;;;;;;2493428;23;20007;-73
2023/09/02 04:52:16;;;;;;;12.40;7.55;;;18.20;99.90;;;;;;2494475;23;20014;-73
2023/09/02 04:53:18;;;;;;;9.48;7.82;;;18.20;99.90;;;;;;2494901;23;20090;-73
2023/09/02 04:54:19;;;;;;;7.43;6.70;;;18.20;99.90;;;;;;2495148;23;20428;-73
2023/09/02 04:55:19;;;;;;;8.27;7.10;;;18.20;99.90;;;;;;2495444;23;20352;-73
2023/09/02 04:56:20;;;;;;;8.25;7.45;;;18.20;99.90;;;;;;2495432;23;20032;-73
2023/09/02 04:57:20;;;;;;;6.78;6.18;;;18.20;99.90;;;;;;2481584;23;20008;-74
2023/09/02 04:58:22;;;;;;;9.63;7.20;;;18.20;99.90;;;;;;2482694;23;20556;-73
2023/09/02 04:59:23;;;;;;;8.07;7.38;;;18.20;99.90;;;;;;2495172;23;20377;-73
2023/09/02 05:00:25;;;;;;;6.88;6.20;;;18.10;99.90;;;;;;2495710;23;20008;-73
2023/09/02 05:01:26;;;;;;;9.65;7.00;;;18.20;99.90;;;;;;2495352;23;20013;-73
2023/09/02 05:02:26;;;;;;;7.85;7.18;;;18.20;99.90;;;;;;2494540;23;20014;-73
2023/09/02 05:03:27;;;;;;;7.45;5.78;;;18.20;99.90;;;;;;2495604;23;20040;-73
2023/09/02 05:04:27;;;;;;;11.95;7.70;;;18.20;99.90;;;;;;2495039;23;20042;-73
2023/09/02 05:05:29;;;;;;;8.48;7.68;;;18.20;99.90;;;;;;2494541;23;20011;-73
2023/09/02 05:06:29;;;;;;;7.18;6.00;;;18.10;99.90;;;;;;2495444;23;20011;-73
2023/09/02 05:07:31;;;;;;;8.00;6.63;;;18.10;99.90;;;;;;2495531;23;20087;-73
2023/09/02 05:08:34;;;;;;;8.80;7.35;;;18.10;99.90;;;;;;2495693;23;20026;-73
2023/09/02 05:09:34;;;;;;;10.68;7.20;;;18.10;99.90;;;;;;2482209;23;20008;-73
2023/09/02 05:10:35;;;;;;;9.23;7.30;;;18.10;99.90;;;;;;2481641;23;20031;-73
2023/09/02 05:11:35;;;;;;;8.30;7.50;;;18.10;99.90;;;;;;2495817;23;20015;-73
2023/09/02 05:12:36;;;;;;;8.10;6.70;;;18.10;99.90;;;;;;2492974;23;20038;-73
2023/09/02 05:13:37;;;;;;;10.68;7.20;;;18.10;99.90;;;;;;2482902;23;20083;-73
2023/09/02 05:14:39;;;;;;;7.00;6.30;;;18.10;99.90;;;;;;2483085;23;20022;-73
2023/09/02 05:15:40;;;;;;;8.38;6.25;;;18.10;99.90;;;;;;2495449;23;20011;-73
2023/09/02 05:16:40;;;;;;;6.85;6.18;;;18.10;99.90;;;;;;2495552;23;20007;-73